Time;durP1;ratioP1;P1;durP2;ratioP2;P2;SDS_P1;SDS_P2;PMS_P1;PMS_P2;Temp;Humidity;BMP_temperature;BMP_pressure;BME280_temperature;BME280_humidity;BME280_pressure;Samples;Min_cycle;Max_cycle;Signal;HPM_P1;HPM_P2
2019/12/27 00:01:33;;;;;;;6;4.2;;;;;;;;;;;;;
2019/12/27 00:03:58;;;;;;;5.2;3.9;;;;;;;;;;;;;
2019/12/27 00:06:28;;;;;;;6.2;3.8;;;;;;;;;;;;;
2019/12/27 00:08:52;;;;;;;5.3;3.9;;;;;;;;;;;;;
2019/12/27 00:11:15;;;;;;;6.6;4.6;;;;;;;;;;;;;
2019/12/27 00:13:46;;;;;;;6.9;4.6;;;;;;;;;;;;;
2019/12/27 00:16:11;;;;;;;7;4.6;;;;;;;;;;;;;
2019/12/27 00:18:35;;;;;;;7.9;4.5;;;;;;;;;;;;;
2019/12/27 00:21:05;;;;;;;6.3;4.2;;;;;;;;;;;;;
2019/12/27 00:23:29;;;;;;;6.3;4.4;;;;;;;;;;;;;
2019/12/27 00:25:54;;;;;;;6.4;4.4;;;;;;;;;;;;;
2019/12/27 00:28:20;;;;;;;7;4.4;;;;;;;;;;;;;
2019/12/27 00:30:56;;;;;;;5.5;4.2;;;;;;;;;;;;;
2019/12/27 00:33:19;;;;;;;7.5;4.4;;;;;;;;;;;;;
2019/12/27 00:35:46;;;;;;;5.5;4.3;;;;;;;;;;;;;
2019/12/27 00:38:14;;;;;;;7.5;4.3;;;;;;;;;;;;;
2019/12/27 00:40:40;;;;;;;5.8;4;;;;;;;;;;;;;
2019/12/27 00:43:10;;;;;;;5;3.7;;;;;;;;;;;;;
2019/12/27 00:45:33;;;;;;;4.3;2.9;;;;;;;;;;;;;
2019/12/27 00:48:00;;;;;;;3.9;2.6;;;;;;;;;;;;;
2019/12/27 00:50:28;;;;;;;3.6;2.1;;;;;;;;;;;;;
2019/12/27 00:52:53;;;;;;;4;2.7;;;;;;;;;;;;;
2019/12/27 00:55:17;;;;;;;3.2;2.3;;;;;;;;;;;;;
2019/12/27 00:57:45;;;;;;;3.3;2.2;;;;;;;;;;;;;
2019/12/27 01:00:10;;;;;;;3.1;1.9;;;;;;;;;;;;;
2019/12/27 01:02:33;;;;;;;2.8;1.8;;;;;;;;;;;;;
2019/12/27 01:05:01;;;;;;;2.8;1.7;;;;;;;;;;;;;
2019/12/27 01:07:28;;;;;;;3.7;1.9;;;;;;;;;;;;;
2019/12/27 01:09:52;;;;;;;2.9;1.9;;;;;;;;;;;;;
2019/12/27 01:12:19;;;;;;;3.2;1.8;;;;;;;;;;;;;
2019/12/27 01:14:45;;;;;;;2.8;1.9;;;;;;;;;;;;;
2019/12/27 01:17:15;;;;;;;4.9;3.3;;;;;;;;;;;;;
2019/12/27 01:19:43;;;;;;;6.3;3.5;;;;;;;;;;;;;
2019/12/27 01:22:02;;;;;;;5.9;3.8;;;;;;;;;;;;;
2019/12/27 01:24:34;;;;;;;6.1;3.9;;;;;;;;;;;;;
2019/12/27 01:26:59;;;;;;;6.9;4.2;;;;;;;;;;;;;
2019/12/27 01:29:21;;;;;;;6.6;4.2;;;;;;;;;;;;;
2019/12/27 01:31:46;;;;;;;7.4;5.4;;;;;;;;;;;;;
2019/12/27 01:34:10;;;;;;;10.8;8.5;;;;;;;;;;;;;
2019/12/27 01:36:39;;;;;;;11.1;8.9;;;;;;;;;;;;;
2019/12/27 01:39:03;;;;;;;17.6;13.3;;;;;;;;;;;;;
2019/12/27 01:41:32;;;;;;;13.4;11.8;;;;;;;;;;;;;
2019/12/27 01:43:59;;;;;;;9.8;8.4;;;;;;;;;;;;;
2019/12/27 01:46:21;;;;;;;5.7;4.5;;;;;;;;;;;;;
2019/12/27 01:48:46;;;;;;;6.1;4.2;;;;;;;;;;;;;
2019/12/27 01:51:12;;;;;;;6.6;4.4;;;;;;;;;;;;;
2019/12/27 01:53:37;;;;;;;6.5;4.7;;;;;;;;;;;;;
2019/12/27 01:56:04;;;;;;;6.4;4.3;;;;;;;;;;;;;
2019/12/27 01:58:29;;;;;;;7.6;4.6;;;;;;;;;;;;;
2019/12/27 02:00:58;;;;;;;6.7;4.6;;;;;;;;;;;;;
2019/12/27 02:03:22;;;;;;;6.2;4.3;;;;;;;;;;;;;
2019/12/27 02:06:09;;;;;;;6.2;4.2;;;;;;;;;;;;;
2019/12/27 02:08:15;;;;;;;6.7;4.7;;;;;;;;;;;;;
2019/12/27 02:10:41;;;;;;;5.6;4;;;;;;;;;;;;;
2019/12/27 02:13:07;;;;;;;6;4.5;;;;;;;;;;;;;
2019/12/27 02:15:34;;;;;;;6.8;4.5;;;;;;;;;;;;;
2019/12/27 02:17:57;;;;;;;5.9;4;;;;;;;;;;;;;
2019/12/27 02:20:22;;;;;;;5.6;3.9;;;;;;;;;;;;;
2019/12/27 02:22:50;;;;;;;6.4;4.2;;;;;;;;;;;;;
2019/12/27 02:25:14;;;;;;;6.6;4;;;;;;;;;;;;;
2019/12/27 02:27:46;;;;;;;6.1;4.1;;;;;;;;;;;;;
2019/12/27 02:30:08;;;;;;;6;3.9;;;;;;;;;;;;;
2019/12/27 02:32:33;;;;;;;6.9;5.3;;;;;;;;;;;;;
2019/12/27 02:35:25;;;;;;;8.1;6.1;;;;;;;;;;;;;
2019/12/27 02:37:52;;;;;;;9.9;6;;;;;;;;;;;;;
2019/12/27 02:40:20;;;;;;;10.3;7;;;;;;;;;;;;;
2019/12/27 02:42:44;;;;;;;10.6;6.3;;;;;;;;;;;;;
2019/12/27 02:45:09;;;;;;;6.8;4.6;;;;;;;;;;;;;
2019/12/27 02:47:40;;;;;;;7.2;5.3;;;;;;;;;;;;;
2019/12/27 02:50:01;;;;;;;8;5.4;;;;;;;;;;;;;
2019/12/27 02:52:25;;;;;;;7.4;5.3;;;;;;;;;;;;;
2019/12/27 02:54:50;;;;;;;6.8;4.9;;;;;;;;;;;;;
2019/12/27 02:57:16;;;;;;;6.9;4.8;;;;;;;;;;;;;
2019/12/27 02:59:41;;;;;;;7.8;5;;;;;;;;;;;;;
2019/12/27 03:04:35;;;;;;;6.2;4.7;;;;;;;;;;;;;
2019/12/27 03:06:59;;;;;;;8.3;5;;;;;;;;;;;;;
2019/12/27 03:09:25;;;;;;;5.7;4.3;;;;;;;;;;;;;
2019/12/27 03:11:56;;;;;;;6.7;4.2;;;;;;;;;;;;;
2019/12/27 03:14:20;;;;;;;5.6;3.9;;;;;;;;;;;;;
2019/12/27 03:16:50;;;;;;;5.9;3.5;;;;;;;;;;;;;
2019/12/27 03:19:14;;;;;;;5.6;3.7;;;;;;;;;;;;;
2019/12/27 03:21:47;;;;;;;4.8;3.5;;;;;;;;;;;;;
2019/12/27 03:24:11;;;;;;;5.5;3.5;;;;;;;;;;;;;
2019/12/27 03:26:42;;;;;;;6.8;3.8;;;;;;;;;;;;;
2019/12/27 03:29:16;;;;;;;5.7;3.7;;;;;;;;;;;;;
2019/12/27 03:31:32;;;;;;;6;4.7;;;;;;;;;;;;;
2019/12/27 03:33:59;;;;;;;8.3;4.6;;;;;;;;;;;;;
2019/12/27 03:36:23;;;;;;;6.1;4.5;;;;;;;;;;;;;
2019/12/27 03:38:47;;;;;;;6.6;4.4;;;;;;;;;;;;;
2019/12/27 03:41:14;;;;;;;7.3;4.4;;;;;;;;;;;;;
2019/12/27 03:43:44;;;;;;;6.3;4.8;;;;;;;;;;;;;
2019/12/27 03:46:03;;;;;;;6.7;4.5;;;;;;;;;;;;;
2019/12/27 03:48:28;;;;;;;6.4;4.3;;;;;;;;;;;;;
2019/12/27 03:50:56;;;;;;;6.8;4.8;;;;;;;;;;;;;
2019/12/27 03:53:21;;;;;;;6.9;4.7;;;;;;;;;;;;;
2019/12/27 03:55:47;;;;;;;5.9;4.1;;;;;;;;;;;;;
2019/12/27 03:58:10;;;;;;;6.6;4.6;;;;;;;;;;;;;
2019/12/27 04:05:11;;;;;;;6.9;4.5;;;;;;;3.01;89.33691;942.4057;;;;
2019/12/27 04:07:43;;;;;;;6;4.4;;;;;;;3.18;88.75586;942.3472;;;;
2019/12/27 04:10:13;;;;;;;10.7;8.1;;;;;;;3.31;88.56836;942.4096;;;;
2019/12/27 04:12:52;;;;;;;10.6;8.6;;;;;;;3.45;88.26172;942.2458;;;;
2019/12/27 04:15:22;;;;;;;12.3;8.3;;;;;;;3.47;88.3125;942.2389;;;;
2019/12/27 04:18:00;;;;;;;9.3;6.6;;;;;;;3.4;87.93555;942.2482;;;;
2019/12/27 04:20:28;;;;;;;9.5;7.3;;;;;;;3.37;88.3125;942.2555;;;;
2019/12/27 04:23:01;;;;;;;9.3;5.9;;;;;;;3.27;88.86426;942.2341;;;;
2019/12/27 04:25:26;;;;;;;7.1;4.7;;;;;;;3.3;88.67871;942.1658;;;;
2019/12/27 04:28:00;;;;;;;7.1;5;;;;;;;3.33;88.75195;942.1593;;;;
2019/12/27 04:30:39;;;;;;;7.5;4.9;;;;;;;3.44;88.11426;942.1454;;;;
2019/12/27 04:33:09;;;;;;;7.2;4.8;;;;;;;3.49;88.02246;942.0806;;;;
2019/12/27 04:35:40;;;;;;;7.9;5;;;;;;;3.52;87.66992;942.0811;;;;
2019/12/27 04:38:10;;;;;;;7.1;4.6;;;;;;;3.42;87.99609;942.0492;;;;
2019/12/27 04:40:35;;;;;;;7.6;4.8;;;;;;;3.36;88.20703;941.9607;;;;
2019/12/27 04:43:09;;;;;;;8;5;;;;;;;3.19;88.9707;941.9989;;;;
2019/12/27 04:45:39;;;;;;;8;5.7;;;;;;;3.2;89.11816;941.9568;;;;
2019/12/27 04:48:11;;;;;;;7.5;5.6;;;;;;;3.25;89.33008;941.938;;;;
2019/12/27 04:50:44;;;;;;;8.8;5.9;;;;;;;3.41;89.15039;941.9913;;;;
2019/12/27 04:53:13;;;;;;;11.7;7.3;;;;;;;3.52;88.09473;942.0022;;;;
2019/12/27 04:55:46;;;;;;;10.2;6.5;;;;;;;3.54;88.12305;941.9977;;;;
2019/12/27 04:58:20;;;;;;;8.9;6.9;;;;;;;3.66;88.03516;942.0345;;;;
2019/12/27 05:00:53;;;;;;;14;8.8;;;;;;;3.79;87.48828;942.0531;;;;
2019/12/27 05:03:19;;;;;;;9.9;6.8;;;;;;;3.83;87.03613;941.9354;;;;
2019/12/27 05:05:54;;;;;;;9.8;6.3;;;;;;;3.91;86.96094;941.9359;;;;
2019/12/27 05:08:29;;;;;;;9.3;6;;;;;;;3.98;86.70605;941.8389;;;;
2019/12/27 05:11:06;;;;;;;10.2;6.6;;;;;;;4.05;86.45996;941.848;;;;
2019/12/27 05:13:41;;;;;;;11.7;6.7;;;;;;;4.11;86.16016;941.897;;;;
2019/12/27 05:16:05;;;;;;;11.9;7.4;;;;;;;4.15;85.88574;941.9308;;;;
2019/12/27 05:18:38;;;;;;;12.2;6.8;;;;;;;4.14;85.91797;941.91;;;;
2019/12/27 05:21:02;;;;;;;11.7;6.8;;;;;;;4.17;85.75488;941.9247;;;;
2019/12/27 05:23:32;;;;;;;7.9;5.4;;;;;;;4.18;85.8916;941.9311;;;;
2019/12/27 05:26:34;;;;;;;8.4;5.1;;;;;;;4.11;85.82227;941.8759;;;;
2019/12/27 05:28:37;;;;;;;8.2;4.8;;;;;;;4.1;86.2373;941.9316;;;;
2019/12/27 05:31:04;;;;;;;8;4.5;;;;;;;4.12;86.40723;941.9155;;;;
2019/12/27 05:33:38;;;;;;;6.4;3.8;;;;;;;4.09;86.42676;941.9233;;;;
2019/12/27 05:36:03;;;;;;;5.9;3.4;;;;;;;4.08;86.60254;941.9227;;;;
2019/12/27 05:38:28;;;;;;;4.1;2.6;;;;;;;4.06;87.36328;941.817;;;;
2019/12/27 05:40:52;;;;;;;4.9;3.1;;;;;;;4.07;87.1875;941.8594;;;;
2019/12/27 05:43:19;;;;;;;5.3;3.4;;;;;;;4.15;87.32422;941.8433;;;;
2019/12/27 05:45:49;;;;;;;5.4;3.4;;;;;;;4.28;86.95996;941.8994;;;;
2019/12/27 05:48:27;;;;;;;5;3.2;;;;;;;4.34;86.54297;941.892;;;;
2019/12/27 05:50:52;;;;;;;5.1;2.8;;;;;;;4.33;86.42871;941.9036;;;;
2019/12/27 05:53:26;;;;;;;5.9;2.6;;;;;;;4.4;86.0498;941.8823;;;;
2019/12/27 05:55:58;;;;;;;4;2.9;;;;;;;4.34;86.11523;941.9339;;;;
2019/12/27 06:01:09;;;;;;;5.5;3.5;;;;;;;4.31;86.88672;941.8577;;;;
2019/12/27 06:03:45;;;;;;;6.8;4.3;;;;;;;4.38;86.43848;941.84;;;;
2019/12/27 06:06:22;;;;;;;4.8;3.7;;;;;;;4.43;85.90918;941.9667;;;;
2019/12/27 06:08:58;;;;;;;7;3.9;;;;;;;4.35;86.09473;941.9081;;;;
2019/12/27 06:11:36;;;;;;;7.9;4.4;;;;;;;4.38;86.28223;941.8566;;;;
2019/12/27 06:13:55;;;;;;;10.1;7.2;;;;;;;4.42;86.2334;941.8641;;;;
2019/12/27 06:19:03;;;;;;;6.9;4.9;;;;;;;4.47;86.21094;941.9125;;;;
2019/12/27 06:21:28;;;;;;;6.1;4.3;;;;;;;4.48;86.20117;941.8709;;;;
2019/12/27 06:24:05;;;;;;;8;5.3;;;;;;;4.36;86.35547;941.9559;;;;
2019/12/27 06:26:32;;;;;;;6.4;4.4;;;;;;;4.32;86.75391;941.9677;;;;
2019/12/27 06:29:05;;;;;;;9.2;5.5;;;;;;;4.33;86.54004;942.0168;;;;
2019/12/27 06:31:30;;;;;;;8.3;5.2;;;;;;;4.23;87.08203;942.0139;;;;
2019/12/27 06:34:06;;;;;;;6.1;4.2;;;;;;;4.26;87.14551;941.985;;;;
2019/12/27 06:36:34;;;;;;;6.9;3.9;;;;;;;4.26;86.92285;942.0808;;;;
2019/12/27 06:39:15;;;;;;;5.9;4.3;;;;;;;4.35;86.62598;942.0156;;;;
2019/12/27 06:41:39;;;;;;;7.2;4;;;;;;;4.33;86.69922;942.0626;;;;
2019/12/27 06:44:08;;;;;;;7;4.1;;;;;;;4.33;86.70996;942.0761;;;;
2019/12/27 06:46:33;;;;;;;4.7;3.3;;;;;;;4.33;86.7666;942.0524;;;;
2019/12/27 06:49:00;;;;;;;5.5;3.4;;;;;;;4.34;86.91504;942.0467;;;;
2019/12/27 06:51:31;;;;;;;5;3.7;;;;;;;4.39;86.64453;942.0469;;;;
2019/12/27 06:54:02;;;;;;;7.2;3.6;;;;;;;4.41;86.39063;942.0845;;;;
2019/12/27 06:59:00;;;;;;;5.4;3.7;;;;;;;4.21;87.74414;942.1961;;;;
2019/12/27 07:01:24;;;;;;;6.1;4.1;;;;;;;4.16;88.36426;942.3088;;;;
2019/12/27 07:04:05;;;;;;;6.6;4.1;;;;;;;4.2;87.79883;942.2672;;;;
2019/12/27 07:06:33;;;;;;;9.2;6.6;;;;;;;4.28;87.52246;942.225;;;;
2019/12/27 07:09:05;;;;;;;8;4.9;;;;;;;4.22;87.86816;942.3233;;;;
2019/12/27 07:11:52;;;;;;;13.2;8.2;;;;;;;4.15;88.125;942.3273;;;;
2019/12/27 07:14:03;;;;;;;20.6;12.9;;;;;;;4.12;87.78125;942.2413;;;;
2019/12/27 07:16:40;;;;;;;34.9;21.7;;;;;;;4.03;88.53906;942.25;;;;
2019/12/27 07:19:22;;;;;;;33.1;20.7;;;;;;;4.1;88.30664;942.368;;;;
2019/12/27 07:21:56;;;;;;;17.5;11.5;;;;;;;4.15;87.55078;942.4305;;;;
2019/12/27 07:24:29;;;;;;;11.5;6.4;;;;;;;4.11;87.22852;942.4203;;;;
2019/12/27 07:26:58;;;;;;;10.7;6.4;;;;;;;4.05;87.78027;942.3786;;;;
2019/12/27 07:29:45;;;;;;;7.5;5;;;;;;;4.01;87.51172;942.44;;;;
2019/12/27 07:32:04;;;;;;;8.2;5.7;;;;;;;3.89;88.67773;942.4377;;;;
2019/12/27 07:34:29;;;;;;;10.9;7.1;;;;;;;3.81;88.88574;942.4497;;;;
2019/12/27 07:36:55;;;;;;;12.2;8.3;;;;;;;3.93;89.04688;942.4821;;;;
2019/12/27 07:39:23;;;;;;;12.7;10.4;;;;;;;4.13;88.58203;942.6096;;;;
2019/12/27 07:42:05;;;;;;;13.3;10.9;;;;;;;4.32;87.72168;942.5692;;;;
2019/12/27 07:44:20;;;;;;;10.8;7.1;;;;;;;4.46;87.21094;942.5041;;;;
2019/12/27 07:47:00;;;;;;;11.4;6.9;;;;;;;4.55;86.73145;942.6163;;;;
2019/12/27 07:49:24;;;;;;;10.9;6.8;;;;;;;4.61;86.50684;942.637;;;;
2019/12/27 07:51:57;;;;;;;9.5;7.4;;;;;;;4.62;86.34082;942.6808;;;;
2019/12/27 07:54:21;;;;;;;11.9;7.3;;;;;;;4.67;86.09277;942.6291;;;;
2019/12/27 07:57:03;;;;;;;10;6.9;;;;;;;4.56;86.48828;942.6689;;;;
2019/12/27 07:59:30;;;;;;;9.1;6.4;;;;;;;4.45;86.91406;942.6596;;;;
2019/12/27 08:02:04;;;;;;;8;6;;;;;;;4.39;87.71387;942.6573;;;;
2019/12/27 08:04:31;;;;;;;11;7.8;;;;;;;4.42;87.73047;942.7471;;;;
2019/12/27 08:07:06;;;;;;;8.7;7.3;;;;;;;4.49;87.58789;942.7803;;;;
2019/12/27 08:09:35;;;;;;;11.2;7.3;;;;;;;4.63;87.14258;942.8108;;;;
2019/12/27 08:12:07;;;;;;;9.2;6.5;;;;;;;4.63;87.04102;942.798;;;;
2019/12/27 08:14:34;;;;;;;8.4;4.8;;;;;;;4.74;86.79492;942.8362;;;;
2019/12/27 08:17:04;;;;;;;9.9;5.9;;;;;;;4.72;86.71191;942.8789;;;;
2019/12/27 08:19:45;;;;;;;8.2;6.3;;;;;;;4.74;86.93945;942.8582;;;;
2019/12/27 08:22:00;;;;;;;8.1;5.7;;;;;;;4.78;86.73242;942.8439;;;;
2019/12/27 08:24:32;;;;;;;9.7;5.7;;;;;;;4.88;86.51855;942.8702;;;;
2019/12/27 08:27:01;;;;;;;11;8.3;;;;;;;4.94;86.67578;942.8897;;;;
2019/12/27 08:29:31;;;;;;;11.1;8;;;;;;;5.04;86.51758;942.8427;;;;
2019/12/27 08:32:01;;;;;;;10.1;8.1;;;;;;;5.1;86.60742;942.9063;;;;
2019/12/27 08:34:29;;;;;;;10.2;8.7;;;;;;;5.15;86.13281;942.8894;;;;
2019/12/27 08:36:56;;;;;;;16;12.5;;;;;;;5.17;86.3623;942.8253;;;;
2019/12/27 08:39:31;;;;;;;27.3;22.5;;;;;;;5.21;86.40332;942.9224;;;;
2019/12/27 08:42:04;;;;;;;20.8;17.2;;;;;;;5.28;86.16992;942.9361;;;;
2019/12/27 08:44:37;;;;;;;22.1;16.3;;;;;;;5.31;86.40137;943.0256;;;;
2019/12/27 08:47:02;;;;;;;13.6;10.5;;;;;;;5.35;85.58691;942.9799;;;;
2019/12/27 08:49:40;;;;;;;13.7;10;;;;;;;5.32;85.44434;942.9258;;;;
2019/12/27 08:52:15;;;;;;;15.6;10.5;;;;;;;5.38;85.89844;943.0701;;;;
2019/12/27 08:54:53;;;;;;;13.5;9.6;;;;;;;5.47;85.39551;943.0941;;;;
2019/12/27 08:57:21;;;;;;;12.5;10.5;;;;;;;5.39;85.49219;943.0917;;;;
2019/12/27 09:00:11;;;;;;;12.1;9.8;;;;;;;5.43;85.5918;943.0145;;;;
2019/12/27 09:02:39;;;;;;;13.4;11;;;;;;;5.48;85.16113;943.1395;;;;
2019/12/27 09:05:12;;;;;;;14.4;12.1;;;;;;;5.46;85.48438;943.1721;;;;
2019/12/27 09:07:41;;;;;;;15.8;9.6;;;;;;;5.4;86.17285;943.2375;;;;
2019/12/27 09:10:15;;;;;;;15.4;10.9;;;;;;;5.35;86.01563;943.3113;;;;
2019/12/27 09:12:49;;;;;;;18.6;13.1;;;;;;;5.35;86.35547;943.2888;;;;
2019/12/27 09:15:22;;;;;;;17.4;13.4;;;;;;;5.45;86.25;943.4016;;;;
2019/12/27 09:17:49;;;;;;;19.1;15.1;;;;;;;5.53;85.90527;943.4122;;;;
2019/12/27 09:20:26;;;;;;;20.7;13.8;;;;;;;5.46;85.30566;943.4486;;;;
2019/12/27 09:22:47;;;;;;;16.7;11.6;;;;;;;5.38;85.0166;943.4822;;;;
2019/12/27 09:25:23;;;;;;;14.5;10.1;;;;;;;5.17;85.72168;943.4956;;;;
2019/12/27 09:27:55;;;;;;;13.5;8.8;;;;;;;5.08;86.50195;943.5228;;;;
2019/12/27 09:30:24;;;;;;;12.1;7.9;;;;;;;5.06;86.2959;943.4441;;;;
2019/12/27 09:32:54;;;;;;;13.6;8.8;;;;;;;5.21;86.45996;943.4713;;;;
2019/12/27 09:38:08;;;;;;;16;9.3;;;;;;;5.37;86.42383;943.5323;;;;
2019/12/27 09:41:14;;;;;;;14.8;9.3;;;;;;;5.48;86.46973;943.4666;;;;
2019/12/27 09:43:43;;;;;;;15.4;10.7;;;;;;;5.64;85.80273;943.4504;;;;
2019/12/27 09:46:23;;;;;;;19.9;15.7;;;;;;;5.77;84.83398;943.5017;;;;
2019/12/27 09:49:03;;;;;;;13.7;7.9;;;;;;;5.83;84.24609;943.467;;;;
2019/12/27 09:51:34;;;;;;;13.7;6.3;;;;;;;5.61;84.98633;943.4551;;;;
2019/12/27 09:53:59;;;;;;;10.1;7.4;;;;;;;5.6;85.0166;943.4623;;;;
2019/12/27 09:56:38;;;;;;;13.2;9.5;;;;;;;5.64;85.91602;943.4916;;;;
2019/12/27 09:59:05;;;;;;;12.4;9.5;;;;;;;5.73;84.82715;943.4869;;;;
2019/12/27 10:01:36;;;;;;;12;9;;;;;;;5.74;84.85352;943.4518;;;;
2019/12/27 10:04:04;;;;;;;15.9;11;;;;;;;5.83;85.06152;943.3998;;;;
2019/12/27 10:06:29;;;;;;;14;10.8;;;;;;;5.86;84.71875;943.337;;;;
2019/12/27 10:09:03;;;;;;;18.2;11.7;;;;;;;5.83;84.86914;943.3707;;;;
2019/12/27 10:11:36;;;;;;;10.4;7.4;;;;;;;5.76;84.95898;943.4288;;;;
2019/12/27 10:14:07;;;;;;;9;6.2;;;;;;;5.85;84.41016;943.4125;;;;
2019/12/27 10:16:41;;;;;;;10.2;5.5;;;;;;;6.01;84.19531;943.4299;;;;
2019/12/27 10:19:20;;;;;;;7.1;5.7;;;;;;;6.02;83.57422;943.4222;;;;
2019/12/27 10:22:21;;;;;;;10.1;6.9;;;;;;;6;84.37207;943.4182;;;;
2019/12/27 10:24:52;;;;;;;8.8;7.1;;;;;;;6.1;84.58398;943.4346;;;;
2019/12/27 10:27:18;;;;;;;9.5;6.8;;;;;;;6.12;84.49902;943.4376;;;;
2019/12/27 10:29:43;;;;;;;10;7.3;;;;;;;6.19;83.87695;943.4247;;;;
2019/12/27 10:32:17;;;;;;;9.8;7.6;;;;;;;6.19;84.00488;943.4684;;;;
2019/12/27 10:34:49;;;;;;;9.4;7.2;;;;;;;6.22;83.64648;943.483;;;;
2019/12/27 10:37:18;;;;;;;9.5;7.8;;;;;;;;;;;;;
2019/12/27 10:39:41;;;;;;;9.6;7;;;;;;;;;;;;;
2019/12/27 10:42:09;;;;;;;8.8;5.9;;;;;;;;;;;;;
2019/12/27 10:44:36;;;;;;;11.9;7;;;;;;;;;;;;;
2019/12/27 10:47:00;;;;;;;8.3;5.9;;;;;;;;;;;;;
2019/12/27 10:49:26;;;;;;;9.3;5.8;;;;;;;;;;;;;
2019/12/27 10:51:59;;;;;;;6.7;4.9;;;;;;;;;;;;;
2019/12/27 10:54:29;;;;;;;8.9;7.8;;;;;;;;;;;;;
2019/12/27 10:56:49;;;;;;;6.6;5.4;;;;;;;;;;;;;
2019/12/27 10:59:16;;;;;;;5.6;4.2;;;;;;;;;;;;;
2019/12/27 11:01:42;;;;;;;5.4;3.9;;;;;;;;;;;;;
2019/12/27 11:04:07;;;;;;;5.2;3.8;;;;;;;;;;;;;
2019/12/27 11:06:33;;;;;;;4.2;3.3;;;;;;;;;;;;;
2019/12/27 11:09:22;;;;;;;3.3;1.9;;;;;;;;;;;;;
2019/12/27 11:11:36;;;;;;;3.7;2.1;;;;;;;;;;;;;
2019/12/27 11:13:50;;;;;;;2.8;2.4;;;;;;;;;;;;;
2019/12/27 11:16:15;;;;;;;4.1;2.8;;;;;;;;;;;;;
2019/12/27 11:18:41;;;;;;;5.2;3.1;;;;;;;;;;;;;
2019/12/27 11:21:07;;;;;;;3.9;3;;;;;;;;;;;;;
2019/12/27 11:23:31;;;;;;;4.2;2.8;;;;;;;;;;;;;
2019/12/27 11:25:55;;;;;;;5.2;3.2;;;;;;;;;;;;;
2019/12/27 11:28:19;;;;;;;6.1;4.1;;;;;;;;;;;;;
2019/12/27 11:30:47;;;;;;;8.2;5.7;;;;;;;;;;;;;
2019/12/27 11:33:12;;;;;;;5.5;3.9;;;;;;;;;;;;;
2019/12/27 11:35:36;;;;;;;2.8;2.2;;;;;;;;;;;;;
2019/12/27 11:38:06;;;;;;;4;2.1;;;;;;;;;;;;;
2019/12/27 11:40:31;;;;;;;3.8;2.4;;;;;;;;;;;;;
2019/12/27 11:42:54;;;;;;;3.3;2;;;;;;;;;;;;;
2019/12/27 11:45:25;;;;;;;5.4;2.4;;;;;;;;;;;;;
2019/12/27 11:47:50;;;;;;;3.6;2.5;;;;;;;;;;;;;
2019/12/27 11:50:16;;;;;;;4.8;2.8;;;;;;;;;;;;;
2019/12/27 11:52:41;;;;;;;3.7;2.6;;;;;;;;;;;;;
2019/12/27 11:55:08;;;;;;;3.9;2.5;;;;;;;;;;;;;
2019/12/27 12:00:11;;;;;;;7.2;4.8;;;;;;;;;;;;;
2019/12/27 12:02:33;;;;;;;5.4;4.1;;;;;;;;;;;;;
2019/12/27 12:05:05;;;;;;;6.9;4.4;;;;;;;;;;;;;
2019/12/27 12:07:30;;;;;;;9.5;5.2;;;;;;;;;;;;;
2019/12/27 12:10:10;;;;;;;8.5;6.3;;;;;;;;;;;;;
2019/12/27 12:12:23;;;;;;;8.5;5.6;;;;;;;;;;;;;
2019/12/27 12:14:47;;;;;;;6;3.9;;;;;;;;;;;;;
2019/12/27 12:17:13;;;;;;;6.4;3.9;;;;;;;;;;;;;
2019/12/27 12:19:39;;;;;;;4.8;3.2;;;;;;;;;;;;;
2019/12/27 12:22:05;;;;;;;5.7;3.3;;;;;;;;;;;;;
2019/12/27 12:24:28;;;;;;;5.3;3.7;;;;;;;;;;;;;
2019/12/27 12:27:04;;;;;;;7.4;4.4;;;;;;;;;;;;;
2019/12/27 12:29:23;;;;;;;6.9;4.1;;;;;;;;;;;;;
2019/12/27 12:31:49;;;;;;;8.9;5.6;;;;;;;;;;;;;
2019/12/27 12:34:16;;;;;;;8;5.6;;;;;;;;;;;;;
2019/12/27 12:36:41;;;;;;;4.9;3.6;;;;;;;;;;;;;
2019/12/27 12:39:06;;;;;;;7.3;4.1;;;;;;;;;;;;;
2019/12/27 12:41:33;;;;;;;7.1;5.4;;;;;;;;;;;;;
2019/12/27 12:43:59;;;;;;;6.8;5.1;;;;;;;;;;;;;
2019/12/27 12:46:23;;;;;;;11.4;7.9;;;;;;;;;;;;;
2019/12/27 12:48:47;;;;;;;8.6;5.7;;;;;;;;;;;;;
2019/12/27 12:51:15;;;;;;;15.1;7.3;;;;;;;;;;;;;
2019/12/27 12:53:41;;;;;;;11.8;8.6;;;;;;;;;;;;;
2019/12/27 12:56:16;;;;;;;10;6.2;;;;;;;;;;;;;
2019/12/27 12:58:43;;;;;;;7.5;6.4;;;;;;;;;;;;;
2019/12/27 13:01:10;;;;;;;8.4;6.1;;;;;;;;;;;;;
2019/12/27 13:03:33;;;;;;;9.1;6.8;;;;;;;;;;;;;
2019/12/27 13:05:59;;;;;;;10.7;7.8;;;;;;;;;;;;;
2019/12/27 13:08:23;;;;;;;10.9;8.3;;;;;;;;;;;;;
2019/12/27 13:10:49;;;;;;;14.4;9.8;;;;;;;;;;;;;
2019/12/27 13:13:18;;;;;;;13.3;9.1;;;;;;;;;;;;;
2019/12/27 13:15:48;;;;;;;8.7;6.7;;;;;;;;;;;;;
2019/12/27 13:18:17;;;;;;;8.3;6.7;;;;;;;;;;;;;
2019/12/27 13:20:39;;;;;;;8.2;6.8;;;;;;;;;;;;;
2019/12/27 13:23:06;;;;;;;7.5;6;;;;;;;;;;;;;
2019/12/27 13:25:32;;;;;;;24.3;19.1;;;;;;;;;;;;;
2019/12/27 13:27:56;;;;;;;9.2;7;;;;;;;;;;;;;
2019/12/27 13:30:21;;;;;;;8.4;6.6;;;;;;;;;;;;;
2019/12/27 13:32:47;;;;;;;7.2;6.3;;;;;;;;;;;;;
2019/12/27 13:35:14;;;;;;;8.2;6.4;;;;;;;;;;;;;
2019/12/27 13:37:39;;;;;;;9.2;6.8;;;;;;;;;;;;;
2019/12/27 13:40:16;;;;;;;9.1;7;;;;;;;;;;;;;
2019/12/27 13:42:36;;;;;;;10.3;7.1;;;;;;;;;;;;;
2019/12/27 13:45:03;;;;;;;7.8;6.2;;;;;;;;;;;;;
2019/12/27 13:47:32;;;;;;;8.9;6.9;;;;;;;;;;;;;
2019/12/27 13:49:52;;;;;;;7.3;5.8;;;;;;;;;;;;;
2019/12/27 13:52:24;;;;;;;7.6;6.1;;;;;;;;;;;;;
2019/12/27 13:54:47;;;;;;;8.6;6.3;;;;;;;;;;;;;
2019/12/27 13:57:12;;;;;;;7.9;5.9;;;;;;;;;;;;;
2019/12/27 13:59:36;;;;;;;10.7;7.4;;;;;;;;;;;;;
2019/12/27 14:02:05;;;;;;;5.9;4.8;;;;;;;;;;;;;
2019/12/27 14:04:31;;;;;;;15.5;13.8;;;;;;;;;;;;;
2019/12/27 14:07:01;;;;;;;5.8;4.8;;;;;;;;;;;;;
2019/12/27 14:09:22;;;;;;;4.7;4.2;;;;;;;;;;;;;
2019/12/27 14:11:47;;;;;;;6.4;5.7;;;;;;;;;;;;;
2019/12/27 14:14:11;;;;;;;5.5;4.7;;;;;;;;;;;;;
2019/12/27 14:16:38;;;;;;;3.5;2.7;;;;;;;;;;;;;
2019/12/27 14:19:04;;;;;;;4.4;3;;;;;;;;;;;;;
2019/12/27 14:21:26;;;;;;;3.2;2.5;;;;;;;;;;;;;
2019/12/27 14:23:56;;;;;;;3.7;2.8;;;;;;;;;;;;;
2019/12/27 14:26:24;;;;;;;3.6;2.3;;;;;;;;;;;;;
2019/12/27 14:28:47;;;;;;;2.6;2.1;;;;;;;;;;;;;
2019/12/27 14:31:18;;;;;;;1.5;1.3;;;;;;;;;;;;;
2019/12/27 14:33:58;;;;;;;2.1;1.5;;;;;;;;;;;;;
2019/12/27 14:36:02;;;;;;;1.8;1.2;;;;;;;;;;;;;
2019/12/27 14:38:32;;;;;;;1.8;1.1;;;;;;;;;;;;;
2019/12/27 14:40:52;;;;;;;1.1;0.9;;;;;;;;;;;;;
2019/12/27 14:43:24;;;;;;;0.9;0.7;;;;;;;;;;;;;
2019/12/27 14:45:46;;;;;;;1.5;0.7;;;;;;;;;;;;;
2019/12/27 14:48:17;;;;;;;2.5;1.1;;;;;;;;;;;;;
2019/12/27 14:50:48;;;;;;;1;0.7;;;;;;;;;;;;;
2019/12/27 14:53:15;;;;;;;1.8;1.4;;;;;;;;;;;;;
2019/12/27 14:55:54;;;;;;;1.8;1;;;;;;;;;;;;;
2019/12/27 14:58:08;;;;;;;1.8;0.8;;;;;;;;;;;;;
2019/12/27 15:00:33;;;;;;;1.7;1.1;;;;;;;;;;;;;
2019/12/27 15:03:00;;;;;;;1.8;1;;;;;;;;;;;;;
2019/12/27 15:05:26;;;;;;;1.5;1.1;;;;;;;;;;;;;
2019/12/27 15:07:50;;;;;;;2.4;1.3;;;;;;;;;;;;;
2019/12/27 15:10:20;;;;;;;1.6;1.4;;;;;;;;;;;;;
2019/12/27 15:12:46;;;;;;;1.6;1.3;;;;;;;;;;;;;
2019/12/27 15:15:24;;;;;;;1.7;1.4;;;;;;;;;;;;;
2019/12/27 15:17:31;;;;;;;1.9;1.4;;;;;;;;;;;;;
2019/12/27 15:20:00;;;;;;;2.6;1.4;;;;;;;;;;;;;
2019/12/27 15:22:27;;;;;;;3.1;2;;;;;;;;;;;;;
2019/12/27 15:24:56;;;;;;;2.1;1.7;;;;;;;;;;;;;
2019/12/27 15:27:16;;;;;;;2;1.4;;;;;;;;;;;;;
2019/12/27 15:29:46;;;;;;;1.8;1.3;;;;;;;;;;;;;
2019/12/27 15:32:07;;;;;;;2;1.6;;;;;;;;;;;;;
2019/12/27 15:34:33;;;;;;;2.5;1.8;;;;;;;;;;;;;
2019/12/27 15:36:58;;;;;;;2.4;1.8;;;;;;;;;;;;;
2019/12/27 15:39:26;;;;;;;3.2;2;;;;;;;;;;;;;
2019/12/27 15:41:51;;;;;;;3.2;2.4;;;;;;;;;;;;;
2019/12/27 15:44:18;;;;;;;3.1;2.3;;;;;;;;;;;;;
2019/12/27 15:46:45;;;;;;;4.2;2.5;;;;;;;;;;;;;
2019/12/27 15:49:07;;;;;;;3.5;2.4;;;;;;;;;;;;;
2019/12/27 15:51:32;;;;;;;3.6;2.4;;;;;;;;;;;;;
2019/12/27 15:53:58;;;;;;;4.1;3.1;;;;;;;;;;;;;
2019/12/27 15:56:23;;;;;;;3;2.5;;;;;;;;;;;;;
2019/12/27 15:58:49;;;;;;;2.4;1.8;;;;;;;;;;;;;
2019/12/27 16:01:16;;;;;;;2.8;1.8;;;;;;;;;;;;;
2019/12/27 16:03:44;;;;;;;2.5;2;;;;;;;;;;;;;
2019/12/27 16:06:09;;;;;;;4.1;2.5;;;;;;;;;;;;;
2019/12/27 16:08:35;;;;;;;4.9;2.7;;;;;;;;;;;;;
2019/12/27 16:10:59;;;;;;;4;2.9;;;;;;;;;;;;;
2019/12/27 16:13:25;;;;;;;2.9;2.3;;;;;;;;;;;;;
2019/12/27 16:15:49;;;;;;;2.8;2.2;;;;;;;;;;;;;
2019/12/27 16:18:19;;;;;;;2.6;1.8;;;;;;;;;;;;;
2019/12/27 16:20:50;;;;;;;3.4;1.9;;;;;;;;;;;;;
2019/12/27 16:23:17;;;;;;;2.5;2;;;;;;;;;;;;;
2019/12/27 16:25:43;;;;;;;4.2;2.5;;;;;;;;;;;;;
2019/12/27 16:28:08;;;;;;;7.7;6.2;;;;;;;;;;;;;
2019/12/27 16:30:33;;;;;;;4.8;3.5;;;;;;;;;;;;;
2019/12/27 16:32:59;;;;;;;3.7;3.1;;;;;;;;;;;;;
2019/12/27 16:35:30;;;;;;;12.9;7.9;;;;;;;;;;;;;
2019/12/27 16:38:00;;;;;;;7.5;5.5;;;;;;;;;;;;;
2019/12/27 16:40:25;;;;;;;31.6;22.9;;;;;;;;;;;;;
2019/12/27 16:42:51;;;;;;;3.6;2.7;;;;;;;;;;;;;
2019/12/27 16:45:31;;;;;;;2.1;1.9;;;;;;;;;;;;;
2019/12/27 16:47:54;;;;;;;3.3;2;;;;;;;;;;;;;
2019/12/27 16:50:18;;;;;;;3;1.9;;;;;;;;;;;;;
2019/12/27 16:52:57;;;;;;;2.1;1.6;;;;;;;;;;;;;
2019/12/27 16:55:11;;;;;;;2.7;1.6;;;;;;;;;;;;;
2019/12/27 16:57:34;;;;;;;1.8;1.4;;;;;;;;;;;;;
2019/12/27 17:00:01;;;;;;;2.4;1.3;;;;;;;;;;;;;
2019/12/27 17:02:26;;;;;;;1.7;1.3;;;;;;;;;;;;;
2019/12/27 17:04:52;;;;;;;1.8;1.6;;;;;;;;;;;;;
2019/12/27 17:07:26;;;;;;;2;1.8;;;;;;;;;;;;;
2019/12/27 17:09:46;;;;;;;3.7;2.9;;;;;;;;;;;;;
2019/12/27 17:12:07;;;;;;;4;3.6;;;;;;;;;;;;;
2019/12/27 17:14:33;;;;;;;2.7;2.2;;;;;;;;;;;;;
2019/12/27 17:16:57;;;;;;;2.1;1.7;;;;;;;;;;;;;
2019/12/27 17:19:28;;;;;;;2.7;1.7;;;;;;;;;;;;;
2019/12/27 17:21:59;;;;;;;1.3;1.2;;;;;;;;;;;;;
2019/12/27 17:24:21;;;;;;;1.4;1.3;;;;;;;;;;;;;
2019/12/27 17:26:48;;;;;;;2.3;1.9;;;;;;;;;;;;;
2019/12/27 17:29:21;;;;;;;3.9;2.5;;;;;;;;;;;;;
2019/12/27 17:31:35;;;;;;;3.7;2.5;;;;;;;;;;;;;
2019/12/27 17:34:01;;;;;;;4.7;2.1;;;;;;;;;;;;;
2019/12/27 17:36:26;;;;;;;2.7;2.2;;;;;;;;;;;;;
2019/12/27 17:38:50;;;;;;;2;1.7;;;;;;;;;;;;;
2019/12/27 17:41:20;;;;;;;3.5;2.2;;;;;;;;;;;;;
2019/12/27 17:43:41;;;;;;;1.4;1.1;;;;;;;;;;;;;
2019/12/27 17:46:07;;;;;;;1.5;0.8;;;;;;;;;;;;;
2019/12/27 17:48:36;;;;;;;1.7;1.4;;;;;;;;;;;;;
2019/12/27 17:51:02;;;;;;;1.1;1;;;;;;;;;;;;;
2019/12/27 17:53:27;;;;;;;1.2;1.1;;;;;;;;;;;;;
2019/12/27 17:55:55;;;;;;;1.4;1.3;;;;;;;;;;;;;
2019/12/27 17:58:19;;;;;;;2.8;2.3;;;;;;;;;;;;;
2019/12/27 18:03:17;;;;;;;3.7;2.3;;;;;;;;;;;;;
2019/12/27 18:05:45;;;;;;;1.7;1.3;;;;;;;;;;;;;
2019/12/27 18:08:10;;;;;;;3.8;2.3;;;;;;;;;;;;;
2019/12/27 18:10:32;;;;;;;2.2;2;;;;;;;;;;;;;
2019/12/27 18:12:57;;;;;;;2.2;1.9;;;;;;;;;;;;;
2019/12/27 18:15:28;;;;;;;2.2;1.4;;;;;;;;;;;;;
2019/12/27 18:17:48;;;;;;;1.4;1.1;;;;;;;;;;;;;
2019/12/27 18:20:14;;;;;;;1.5;1.1;;;;;;;;;;;;;
2019/12/27 18:22:38;;;;;;;1;0.9;;;;;;;;;;;;;
2019/12/27 18:25:06;;;;;;;1.2;1.1;;;;;;;;;;;;;
2019/12/27 18:27:30;;;;;;;1.8;1.1;;;;;;;;;;;;;
2019/12/27 18:29:55;;;;;;;1.2;1;;;;;;;;;;;;;
2019/12/27 18:32:29;;;;;;;1.1;1;;;;;;;;;;;;;
2019/12/27 18:34:53;;;;;;;2.1;1.3;;;;;;;;;;;;;